Time;durP1;ratioP1;P1;durP2;ratioP2;P2;SDS_P1;SDS_P2;PMS_P1;PMS_P2;Temp;Humidity;BMP_temperature;BMP_pressure;BME280_temperature;BME280_humidity;BME280_pressure;Samples;Min_cycle;Max_cycle;Signal;HPM_P1;HPM_P2
2021/12/02 00:01:57;;;;;;;1.63;0.60;;;10.30;99.90;;;;;;4980486;28;20031;-85
2021/12/02 00:04:23;;;;;;;0.50;0.35;;;10.30;99.90;;;;;;4961455;29;20027;-85
2021/12/02 00:06:49;;;;;;;0.45;0.43;;;10.30;99.90;;;;;;4961073;29;20035;-86
2021/12/02 00:09:16;;;;;;;0.95;0.50;;;10.30;99.90;;;;;;4981287;28;20019;-85
2021/12/02 00:11:42;;;;;;;0.52;0.50;;;10.30;99.90;;;;;;4965201;28;20035;-87
2021/12/02 00:14:11;;;;;;;0.55;0.47;;;10.30;99.90;;;;;;4982419;28;20020;-86
2021/12/02 00:16:51;;;;;;;0.90;0.60;;;10.30;99.90;;;;;;4982029;28;20027;-89
2021/12/02 00:22:05;;;;;;;1.27;0.47;;;10.30;99.90;;;;;;4981624;28;20102;-87
2021/12/02 00:24:36;;;;;;;0.38;0.38;;;10.30;99.90;;;;;;4981540;28;20011;-87
2021/12/02 00:27:06;;;;;;;0.50;0.50;;;10.30;99.90;;;;;;4980062;28;20392;-87
2021/12/02 00:29:33;;;;;;;0.65;0.50;;;10.30;99.90;;;;;;4963626;28;20039;-85
2021/12/02 00:32:03;;;;;;;0.35;0.30;;;10.30;99.90;;;;;;4979913;28;20068;-86
2021/12/02 00:34:29;;;;;;;0.82;0.68;;;10.40;99.90;;;;;;4980280;28;20051;-86
2021/12/02 00:36:57;;;;;;;0.77;0.50;;;10.40;99.90;;;;;;4981493;28;20015;-85
2021/12/02 00:39:24;;;;;;;0.45;0.35;;;10.40;99.90;;;;;;4981687;28;20055;-86
2021/12/02 00:41:50;;;;;;;0.70;0.57;;;10.40;99.90;;;;;;4980322;28;20051;-87
2021/12/02 00:44:20;;;;;;;0.52;0.40;;;10.40;99.90;;;;;;4980540;28;20042;-87
2021/12/02 00:46:47;;;;;;;0.70;0.70;;;10.40;99.90;;;;;;4979534;28;20062;-87
2021/12/02 00:49:17;;;;;;;0.60;0.43;;;10.50;99.90;;;;;;4964867;28;20035;-86
2021/12/02 00:51:52;;;;;;;1.02;0.40;;;10.50;99.90;;;;;;4963019;28;20043;-85
2021/12/02 00:54:19;;;;;;;0.93;0.40;;;10.50;99.90;;;;;;4957547;29;20030;-86
2021/12/02 00:56:45;;;;;;;1.45;0.45;;;10.40;99.90;;;;;;4955218;29;20051;-86
2021/12/02 00:59:11;;;;;;;0.77;0.43;;;10.40;99.90;;;;;;4954662;29;20031;-87
2021/12/02 01:01:40;;;;;;;0.60;0.60;;;10.50;99.90;;;;;;4969924;29;20011;-86
2021/12/02 01:04:11;;;;;;;0.50;0.50;;;10.50;99.90;;;;;;4969523;29;20031;-86
2021/12/02 01:06:39;;;;;;;0.45;0.40;;;10.50;99.90;;;;;;4969804;29;20067;-85
2021/12/02 01:09:07;;;;;;;0.30;0.30;;;10.50;99.90;;;;;;4952811;29;20031;-87
2021/12/02 01:11:33;;;;;;;1.23;0.57;;;10.50;99.90;;;;;;4974916;28;20050;-87
2021/12/02 01:14:03;;;;;;;0.40;0.40;;;10.50;99.90;;;;;;4972420;28;20031;-88
2021/12/02 01:16:29;;;;;;;0.47;0.47;;;10.50;99.90;;;;;;4969872;29;20027;-88
2021/12/02 01:18:54;;;;;;;0.85;0.43;;;10.50;99.90;;;;;;4969812;29;20054;-86
2021/12/02 01:21:23;;;;;;;0.95;0.55;;;10.50;99.90;;;;;;4953744;29;20644;-85
2021/12/02 01:23:54;;;;;;;1.23;0.32;;;10.50;99.90;;;;;;4962368;28;20023;-87
2021/12/02 01:26:20;;;;;;;2.53;0.77;;;10.50;99.90;;;;;;4982154;28;20046;-87
2021/12/02 01:28:49;;;;;;;0.40;0.40;;;10.60;99.90;;;;;;4964052;28;20030;-86
2021/12/02 01:31:16;;;;;;;0.50;0.50;;;10.60;99.90;;;;;;4981014;28;20031;-87
2021/12/02 01:33:44;;;;;;;0.40;0.40;;;10.60;99.90;;;;;;4980989;28;20020;-85
2021/12/02 01:36:11;;;;;;;0.47;0.40;;;10.60;99.90;;;;;;4958129;29;20383;-88
2021/12/02 01:38:37;;;;;;;0.88;0.50;;;10.50;99.90;;;;;;4970354;29;20052;-87
2021/12/02 01:41:04;;;;;;;1.25;0.60;;;10.50;99.90;;;;;;4969803;29;20062;-86
2021/12/02 01:43:50;;;;;;;0.75;0.60;;;10.50;99.90;;;;;;4970610;29;20027;-87
2021/12/02 01:46:25;;;;;;;0.57;0.50;;;10.50;99.90;;;;;;4972586;29;20031;-87
2021/12/02 01:49:04;;;;;;;0.38;0.38;;;10.50;99.90;;;;;;4962063;29;20020;-84
2021/12/02 01:51:41;;;;;;;2.28;0.60;;;10.50;99.90;;;;;;4970389;29;20035;-87
2021/12/02 01:54:16;;;;;;;0.40;0.40;;;10.40;99.90;;;;;;4955104;29;20019;-86
2021/12/02 01:56:48;;;;;;;1.15;0.40;;;10.50;99.90;;;;;;4974893;28;20027;-85
2021/12/02 01:59:17;;;;;;;0.88;0.40;;;10.50;99.90;;;;;;4975357;29;20059;-86
2021/12/02 02:01:45;;;;;;;2.05;0.50;;;10.50;99.90;;;;;;4979989;28;20039;-86
2021/12/02 02:04:18;;;;;;;0.95;0.60;;;10.40;99.90;;;;;;4978057;28;20027;-87
2021/12/02 02:07:06;;;;;;;;;;;10.40;99.90;;;;;;4958880;29;20044;-85
2021/12/02 02:09:35;;;;;;;0.80;0.70;;;10.40;99.90;;;;;;4979934;28;19902;-86
2021/12/02 02:12:07;;;;;;;0.80;0.50;;;10.40;99.90;;;;;;4979019;28;20039;-87
2021/12/02 02:14:34;;;;;;;0.52;0.40;;;10.40;99.90;;;;;;4958681;29;20046;-84
2021/12/02 02:17:06;;;;;;;0.82;0.50;;;10.40;99.90;;;;;;4977426;28;20043;-84
2021/12/02 02:19:35;;;;;;;0.40;0.40;;;10.40;99.90;;;;;;4978135;29;20027;-85
2021/12/02 02:22:02;;;;;;;0.85;0.40;;;10.40;99.90;;;;;;4962093;28;20036;-86
2021/12/02 02:24:29;;;;;;;0.47;0.30;;;10.40;99.90;;;;;;4978899;28;20045;-84
2021/12/02 02:26:55;;;;;;;0.40;0.40;;;10.40;99.90;;;;;;4961951;29;20083;-84
2021/12/02 02:29:22;;;;;;;0.57;0.35;;;10.30;99.90;;;;;;4975586;29;20023;-86
2021/12/02 02:31:49;;;;;;;0.50;0.50;;;10.30;99.90;;;;;;4969994;29;20031;-84
2021/12/02 02:34:15;;;;;;;0.70;0.30;;;10.30;99.90;;;;;;4970606;29;20078;-86
2021/12/02 02:36:52;;;;;;;0.60;0.40;;;10.40;99.90;;;;;;4952278;28;20030;-86
2021/12/02 02:39:19;;;;;;;0.80;0.40;;;10.40;99.90;;;;;;4976158;28;20019;-84
2021/12/02 02:41:56;;;;;;;1.25;0.50;;;10.30;99.90;;;;;;4969063;29;20034;-84
2021/12/02 02:44:23;;;;;;;1.65;0.60;;;10.30;99.90;;;;;;4971694;29;20031;-84
2021/12/02 02:46:49;;;;;;;0.82;0.50;;;10.30;99.90;;;;;;4971505;29;20028;-86
2021/12/02 02:49:16;;;;;;;0.47;0.38;;;10.30;99.90;;;;;;4971426;29;20059;-85
2021/12/02 02:51:44;;;;;;;0.60;0.50;;;10.30;99.90;;;;;;4966230;29;20039;-85
2021/12/02 02:54:12;;;;;;;1.20;0.40;;;10.30;99.90;;;;;;4970454;29;20030;-84
2021/12/02 02:56:51;;;;;;;0.38;0.38;;;10.30;99.90;;;;;;4970745;29;20023;-85
2021/12/02 03:04:48;;;;;;;1.00;0.30;;;10.30;99.90;;;;;;4975649;28;20023;-85
2021/12/02 03:07:25;;;;;;;0.52;0.52;;;10.30;99.90;;;;;;4979639;28;20050;-86
2021/12/02 03:10:14;;;;;;;3.63;0.43;;;10.30;99.90;;;;;;4963516;28;20046;-86
2021/12/02 03:12:53;;;;;;;0.40;0.40;;;10.30;99.90;;;;;;4978559;28;20027;-86
2021/12/02 03:17:48;;;;;;;0.68;0.40;;;10.30;99.90;;;;;;4979715;28;20037;-84
2021/12/02 03:20:15;;;;;;;0.85;0.57;;;10.20;99.90;;;;;;4979195;28;20047;-85
2021/12/02 03:22:43;;;;;;;0.63;0.60;;;10.30;99.90;;;;;;4956030;29;20027;-85
2021/12/02 03:25:10;;;;;;;0.40;0.40;;;10.20;99.90;;;;;;4960066;28;20039;-84
2021/12/02 03:27:39;;;;;;;0.40;0.40;;;10.20;99.90;;;;;;4962379;28;20031;-85
2021/12/02 03:30:11;;;;;;;0.50;0.50;;;10.20;99.90;;;;;;4978002;28;20134;-85
2021/12/02 03:32:38;;;;;;;0.90;0.50;;;10.20;99.90;;;;;;4975495;29;20027;-85
2021/12/02 03:35:06;;;;;;;1.15;0.50;;;10.20;99.90;;;;;;4959192;29;20438;-84
2021/12/02 03:37:32;;;;;;;1.23;0.50;;;10.20;99.90;;;;;;4960860;29;20059;-85
2021/12/02 03:39:57;;;;;;;0.60;0.50;;;10.20;99.90;;;;;;4955529;29;20038;-86
2021/12/02 03:42:23;;;;;;;0.40;0.40;;;10.20;99.90;;;;;;4954626;29;20031;-85
2021/12/02 03:44:50;;;;;;;0.30;0.30;;;10.20;99.90;;;;;;4953007;29;20031;-85
2021/12/02 03:47:16;;;;;;;0.35;0.35;;;10.20;99.90;;;;;;4969714;29;20102;-87
2021/12/02 03:49:42;;;;;;;0.40;0.40;;;10.20;99.90;;;;;;4972122;28;20023;-85
2021/12/02 03:52:08;;;;;;;0.40;0.40;;;10.10;99.90;;;;;;4978210;28;20043;-85
2021/12/02 03:54:34;;;;;;;0.50;0.50;;;10.20;99.90;;;;;;4974976;28;20046;-86
2021/12/02 03:57:00;;;;;;;1.17;0.40;;;10.10;99.90;;;;;;4957400;29;20042;-85
2021/12/02 03:59:26;;;;;;;0.40;0.38;;;10.20;99.90;;;;;;4972610;29;20034;-85
2021/12/02 04:01:55;;;;;;;0.82;0.40;;;10.10;99.90;;;;;;4970983;29;20056;-86
2021/12/02 04:04:21;;;;;;;0.32;0.32;;;10.20;99.90;;;;;;4972956;29;20036;-86
2021/12/02 04:06:50;;;;;;;0.60;0.30;;;10.10;99.90;;;;;;4975384;29;20087;-84
2021/12/02 04:09:20;;;;;;;0.40;0.30;;;10.10;99.90;;;;;;4975698;29;20058;-85
2021/12/02 04:11:56;;;;;;;0.65;0.30;;;10.10;99.90;;;;;;4975531;29;20042;-86
2021/12/02 04:14:31;;;;;;;0.75;0.45;;;10.10;99.90;;;;;;4975232;28;20110;-87
2021/12/02 04:16:58;;;;;;;0.50;0.50;;;10.10;99.90;;;;;;4976973;28;20079;-85
2021/12/02 04:19:25;;;;;;;0.68;0.50;;;10.10;99.90;;;;;;4978707;28;20031;-85
2021/12/02 04:21:52;;;;;;;0.60;0.40;;;10.10;99.90;;;;;;4961739;28;20077;-85
2021/12/02 04:24:18;;;;;;;0.40;0.35;;;10.00;99.90;;;;;;4978293;28;20038;-85
2021/12/02 04:26:44;;;;;;;0.40;0.30;;;10.10;99.90;;;;;;4979333;28;20023;-84
2021/12/02 04:29:14;;;;;;;0.40;0.40;;;10.10;99.90;;;;;;4966222;28;20043;-85
2021/12/02 04:31:47;;;;;;;0.98;0.30;;;10.10;99.90;;;;;;4981870;28;20035;-85
2021/12/02 04:34:14;;;;;;;0.40;0.40;;;10.10;99.90;;;;;;4982609;28;20054;-85
2021/12/02 04:36:40;;;;;;;1.65;0.40;;;10.10;99.90;;;;;;4965620;28;20035;-86
2021/12/02 04:39:06;;;;;;;0.52;0.52;;;10.00;99.90;;;;;;4965276;28;20047;-86
2021/12/02 04:41:32;;;;;;;0.68;0.40;;;10.00;99.90;;;;;;4979957;28;20042;-85
2021/12/02 04:43:58;;;;;;;0.40;0.40;;;10.00;99.90;;;;;;4959145;29;20066;-85
2021/12/02 04:46:24;;;;;;;0.47;0.32;;;10.00;99.90;;;;;;4974853;29;20043;-84
2021/12/02 04:48:50;;;;;;;0.50;0.43;;;10.00;99.90;;;;;;4961850;28;20027;-86
2021/12/02 04:51:16;;;;;;;0.60;0.50;;;10.00;99.90;;;;;;4979569;28;20043;-85
2021/12/02 04:53:42;;;;;;;0.60;0.30;;;10.00;99.90;;;;;;4978164;28;20015;-85
2021/12/02 04:56:08;;;;;;;2.25;0.40;;;10.00;99.90;;;;;;4981691;28;20019;-85
2021/12/02 04:58:36;;;;;;;0.30;0.30;;;10.00;99.90;;;;;;4965241;28;20252;-87
2021/12/02 05:01:02;;;;;;;1.20;0.50;;;10.00;99.90;;;;;;4965228;28;20034;-85
2021/12/02 05:03:31;;;;;;;0.73;0.50;;;9.90;99.90;;;;;;4982047;28;20034;-85
2021/12/02 05:05:57;;;;;;;1.10;0.50;;;9.90;99.90;;;;;;4965742;28;20011;-85
2021/12/02 05:08:26;;;;;;;0.88;0.50;;;9.90;99.90;;;;;;4981811;28;20023;-85
2021/12/02 05:10:52;;;;;;;0.80;0.43;;;9.90;99.90;;;;;;4965176;28;20051;-85
2021/12/02 05:13:21;;;;;;;0.70;0.52;;;9.90;99.90;;;;;;4981387;28;20059;-85
2021/12/02 05:15:47;;;;;;;0.73;0.40;;;9.90;99.90;;;;;;4981554;28;20023;-84
2021/12/02 05:18:12;;;;;;;1.00;0.63;;;9.90;99.90;;;;;;4981121;28;20039;-88
2021/12/02 05:20:41;;;;;;;0.47;0.40;;;9.90;99.90;;;;;;4980579;28;20035;-84
2021/12/02 05:23:08;;;;;;;0.30;0.30;;;9.90;99.90;;;;;;4964506;28;20066;-86
2021/12/02 05:25:34;;;;;;;1.00;0.63;;;9.90;99.90;;;;;;4981498;28;20027;-85
2021/12/02 05:28:03;;;;;;;0.70;0.50;;;9.90;99.90;;;;;;4976401;29;20028;-86
2021/12/02 05:30:30;;;;;;;0.73;0.50;;;9.90;99.90;;;;;;4969978;29;20034;-85
2021/12/02 05:33:00;;;;;;;2.22;0.50;;;9.90;99.90;;;;;;4953613;29;20119;-86
2021/12/02 05:35:26;;;;;;;0.90;0.40;;;9.90;99.90;;;;;;4955309;29;20287;-84
2021/12/02 05:37:52;;;;;;;0.40;0.30;;;9.80;99.90;;;;;;4973401;28;20035;-84
2021/12/02 05:40:19;;;;;;;0.75;0.40;;;9.90;99.90;;;;;;4977202;28;20023;-84
2021/12/02 05:42:48;;;;;;;1.30;0.45;;;9.80;99.90;;;;;;4971769;29;20045;-85
2021/12/02 05:45:14;;;;;;;6.03;0.50;;;9.90;99.90;;;;;;4972722;29;20079;-86
2021/12/02 05:47:40;;;;;;;1.35;0.45;;;9.90;99.90;;;;;;5002821;23;20053;-87
2021/12/02 05:50:06;;;;;;;0.55;0.50;;;9.90;99.90;;;;;;4955906;28;20018;-87
2021/12/02 05:52:32;;;;;;;4.75;0.65;;;9.90;99.90;;;;;;4972535;28;20038;-87
2021/12/02 05:54:58;;;;;;;0.77;0.38;;;9.90;99.90;;;;;;4989387;28;20027;-86
2021/12/02 05:57:24;;;;;;;3.92;0.43;;;9.90;99.90;;;;;;4971086;28;20066;-86
2021/12/02 05:59:50;;;;;;;3.72;0.60;;;9.80;99.90;;;;;;4970564;28;20107;-87
2021/12/02 06:02:16;;;;;;;0.63;0.50;;;9.80;99.90;;;;;;4954688;28;20058;-85
2021/12/02 06:04:44;;;;;;;3.50;0.50;;;9.80;99.90;;;;;;4986922;28;20086;-88
2021/12/02 06:07:10;;;;;;;4.72;0.60;;;9.80;99.90;;;;;;4970295;28;20034;-87
2021/12/02 06:09:36;;;;;;;9.00;5.22;;;9.80;99.90;;;;;;4953601;28;20642;-87
2021/12/02 06:12:02;;;;;;;1.08;0.75;;;9.80;99.90;;;;;;4968917;28;20039;-87
2021/12/02 06:14:27;;;;;;;3.50;0.95;;;9.80;99.90;;;;;;4971136;28;20111;-87
2021/12/02 06:16:53;;;;;;;1.95;0.57;;;9.80;99.90;;;;;;4987820;28;20391;-87
2021/12/02 06:19:19;;;;;;;0.88;0.68;;;9.80;99.90;;;;;;4986047;28;20027;-87
2021/12/02 06:21:45;;;;;;;6.60;1.05;;;9.80;99.90;;;;;;4974869;28;20031;-86
2021/12/02 06:24:11;;;;;;;1.25;0.73;;;9.80;99.90;;;;;;4972546;28;20042;-87
2021/12/02 06:26:37;;;;;;;2.00;0.70;;;9.80;99.90;;;;;;4969127;28;20058;-86
2021/12/02 06:29:05;;;;;;;3.17;0.60;;;9.80;99.90;;;;;;4971675;28;20085;-85
2021/12/02 06:31:33;;;;;;;5.28;0.75;;;9.70;99.90;;;;;;4981021;28;20106;-87
2021/12/02 06:33:59;;;;;;;3.47;0.98;;;9.70;99.90;;;;;;4994571;28;20042;-87
2021/12/02 06:36:25;;;;;;;2.90;0.90;;;9.70;99.90;;;;;;4994308;28;20023;-84
2021/12/02 06:38:51;;;;;;;1.77;0.90;;;9.80;99.90;;;;;;4958266;28;20057;-86
2021/12/02 06:41:18;;;;;;;3.13;0.70;;;9.70;99.90;;;;;;4990168;28;20035;-88
2021/12/02 06:43:45;;;;;;;7.25;1.00;;;9.80;99.90;;;;;;4976056;28;20049;-89
2021/12/02 06:46:11;;;;;;;2.80;0.68;;;9.80;99.90;;;;;;4957655;28;20031;-86
2021/12/02 06:48:38;;;;;;;2.67;0.90;;;9.80;99.90;;;;;;4994903;28;20054;-86
2021/12/02 06:51:04;;;;;;;1.88;0.98;;;9.80;99.90;;;;;;4996734;28;20049;-87
2021/12/02 06:53:30;;;;;;;3.90;0.63;;;9.80;99.90;;;;;;4975698;28;20027;-87
2021/12/02 06:55:56;;;;;;;3.17;0.60;;;9.80;99.90;;;;;;4976064;28;20053;-87
2021/12/02 06:58:22;;;;;;;1.63;0.70;;;9.80;99.90;;;;;;4979909;28;20019;-86
2021/12/02 07:00:47;;;;;;;5.97;1.05;;;9.80;99.90;;;;;;4979785;28;20018;-86
2021/12/02 07:03:13;;;;;;;6.78;0.90;;;9.80;99.90;;;;;;4981502;28;20054;-85
2021/12/02 07:05:40;;;;;;;1.00;0.52;;;9.80;99.90;;;;;;4997450;28;20038;-87
2021/12/02 07:08:06;;;;;;;0.73;0.50;;;9.90;99.90;;;;;;4996964;28;20073;-86
2021/12/02 07:10:33;;;;;;;0.90;0.60;;;9.90;99.90;;;;;;4979613;28;20039;-86
2021/12/02 07:13:00;;;;;;;7.60;1.17;;;9.90;99.90;;;;;;4978530;28;20034;-85
2021/12/02 07:15:31;;;;;;;3.90;0.98;;;9.80;99.90;;;;;;4996855;28;20026;-86
2021/12/02 07:17:59;;;;;;;2.25;1.00;;;9.70;99.90;;;;;;4979920;28;20046;-87
2021/12/02 07:20:35;;;;;;;34.35;11.50;;;9.70;99.90;;;;;;4996517;28;20030;-88
2021/12/02 07:23:02;;;;;;;6.85;1.20;;;9.80;99.90;;;;;;4962343;28;20099;-86
2021/12/02 07:25:29;;;;;;;9.80;3.70;;;9.80;99.90;;;;;;4975700;28;20054;-88
2021/12/02 07:27:55;;;;;;;3.50;0.90;;;9.80;99.90;;;;;;4973376;28;20038;-88
2021/12/02 07:30:21;;;;;;;5.10;1.10;;;9.80;99.90;;;;;;4987903;28;20031;-88
2021/12/02 07:32:52;;;;;;;1.83;0.85;;;9.70;99.90;;;;;;4972088;28;20027;-89
2021/12/02 07:35:18;;;;;;;7.05;3.22;;;9.70;99.90;;;;;;4968393;28;20063;-89
2021/12/02 07:37:49;;;;;;;18.50;6.43;;;9.70;99.90;;;;;;4980459;28;20020;-88
2021/12/02 07:40:17;;;;;;;2.72;0.98;;;9.70;99.90;;;;;;4959086;28;20102;-87
2021/12/02 07:42:48;;;;;;;1.90;1.10;;;9.80;99.90;;;;;;4972935;28;20663;-88
2021/12/02 07:45:15;;;;;;;2.90;0.80;;;9.80;99.90;;;;;;4961693;29;20038;-87
2021/12/02 07:47:42;;;;;;;3.10;1.08;;;9.80;99.90;;;;;;4978076;28;20075;-87
2021/12/02 07:50:10;;;;;;;4.35;1.08;;;9.80;99.90;;;;;;4978748;28;20059;-88
2021/12/02 07:52:44;;;;;;;2.40;1.00;;;9.80;99.90;;;;;;4961949;28;20047;-86
2021/12/02 07:55:14;;;;;;;4.28;1.00;;;9.80;99.90;;;;;;4962296;28;20031;-87
2021/12/02 07:57:43;;;;;;;3.35;1.10;;;9.80;99.90;;;;;;4961352;29;20027;-90
2021/12/02 08:00:10;;;;;;;7.10;1.40;;;9.90;99.90;;;;;;4946267;28;20016;-88
2021/12/02 08:02:36;;;;;;;16.02;2.10;;;9.90;99.90;;;;;;4964571;28;20098;-87
2021/12/02 08:05:06;;;;;;;24.08;8.45;;;9.90;99.90;;;;;;4965093;28;20046;-88
2021/12/02 08:07:33;;;;;;;5.03;1.50;;;9.90;99.90;;;;;;4964933;29;20491;-89
2021/12/02 08:10:01;;;;;;;5.88;1.05;;;9.90;99.90;;;;;;4964535;29;20051;-87
2021/12/02 08:12:28;;;;;;;3.17;0.90;;;9.90;99.90;;;;;;4961071;29;20090;-89
2021/12/02 08:14:56;;;;;;;3.50;1.10;;;9.90;99.90;;;;;;4974914;29;20053;-88
2021/12/02 08:17:22;;;;;;;3.53;1.13;;;9.90;99.90;;;;;;4948055;28;20043;-88
2021/12/02 08:19:48;;;;;;;6.22;1.00;;;9.90;99.90;;;;;;4967474;28;20015;-90
2021/12/02 08:22:14;;;;;;;4.35;1.40;;;9.90;99.90;;;;;;4990657;28;20039;-89
2021/12/02 08:24:40;;;;;;;7.28;1.20;;;9.90;99.90;;;;;;4991167;28;20022;-86
2021/12/02 08:27:07;;;;;;;4.55;1.20;;;9.90;99.90;;;;;;4973185;28;20552;-88
2021/12/02 08:29:33;;;;;;;2.72;1.10;;;10.00;99.90;;;;;;4989753;28;20034;-88
2021/12/02 08:32:01;;;;;;;3.78;1.13;;;10.00;99.90;;;;;;4971837;28;20043;-88
2021/12/02 08:34:27;;;;;;;3.17;1.40;;;10.00;99.90;;;;;;4991133;28;20090;-87
2021/12/02 08:36:54;;;;;;;3.35;1.08;;;10.00;99.90;;;;;;4990745;28;20038;-86
2021/12/02 08:39:27;;;;;;;2.03;1.13;;;10.00;99.90;;;;;;4971569;28;20031;-86
2021/12/02 08:41:55;;;;;;;10.43;1.03;;;10.00;99.90;;;;;;4960026;29;20042;-89
2021/12/02 08:44:23;;;;;;;6.57;1.38;;;10.10;99.90;;;;;;4989616;28;20031;-86
2021/12/02 08:46:50;;;;;;;37.20;12.00;;;10.10;99.90;;;;;;4986976;28;20043;-86
2021/12/02 08:49:17;;;;;;;11.15;1.58;;;10.10;99.90;;;;;;4962060;29;20027;-87
2021/12/02 08:51:44;;;;;;;6.65;1.55;;;10.10;99.90;;;;;;4974142;29;20040;-86
2021/12/02 08:54:11;;;;;;;5.82;1.52;;;10.10;99.90;;;;;;4971890;29;20087;-86
2021/12/02 08:56:37;;;;;;;4.68;1.30;;;10.10;99.90;;;;;;4988900;28;20091;-86
2021/12/02 08:59:03;;;;;;;5.28;0.90;;;10.00;99.90;;;;;;4984245;28;20038;-84
2021/12/02 09:01:29;;;;;;;0.85;0.70;;;9.90;99.90;;;;;;4982918;28;20026;-86
2021/12/02 09:03:56;;;;;;;1.50;0.80;;;9.80;99.90;;;;;;4996802;28;20023;-85
2021/12/02 09:06:23;;;;;;;1.42;0.80;;;9.80;99.90;;;;;;4984079;28;20046;-85
2021/12/02 09:08:51;;;;;;;1.63;0.93;;;9.90;99.90;;;;;;4978397;28;20027;-85
2021/12/02 09:11:17;;;;;;;2.05;0.70;;;9.90;99.90;;;;;;4997305;28;20090;-85
2021/12/02 09:13:43;;;;;;;1.83;1.00;;;9.90;99.90;;;;;;4979589;28;20038;-85
2021/12/02 09:16:09;;;;;;;1.08;0.77;;;10.00;99.90;;;;;;4998203;28;20026;-86
2021/12/02 09:18:35;;;;;;;1.80;0.75;;;10.10;99.90;;;;;;4979593;28;20023;-85
2021/12/02 09:21:05;;;;;;;4.05;0.85;;;10.00;99.90;;;;;;4992901;28;20023;-85
2021/12/02 09:23:31;;;;;;;6.47;1.20;;;10.00;99.90;;;;;;4976296;28;20123;-85
2021/12/02 09:25:58;;;;;;;8.73;1.30;;;10.10;99.90;;;;;;4991253;28;20031;-85
2021/12/02 09:28:25;;;;;;;1.20;0.77;;;10.10;99.90;;;;;;4974339;28;20050;-86
2021/12/02 09:30:51;;;;;;;5.15;1.10;;;10.10;99.90;;;;;;4997745;28;20085;-86
2021/12/02 09:33:18;;;;;;;6.85;1.20;;;10.10;99.90;;;;;;4967371;28;20029;-85
2021/12/02 09:35:44;;;;;;;4.47;1.48;;;10.30;99.90;;;;;;4983080;28;20054;-83
2021/12/02 09:38:16;;;;;;;3.35;1.00;;;10.20;99.90;;;;;;5000113;28;20041;-85
2021/12/02 09:40:44;;;;;;;1.25;0.90;;;10.30;99.90;;;;;;4983458;28;20023;-86
2021/12/02 09:43:11;;;;;;;4.75;1.02;;;10.30;99.90;;;;;;4980180;28;20026;-86
2021/12/02 09:45:39;;;;;;;3.72;1.02;;;10.10;99.90;;;;;;4976457;28;20029;-85
2021/12/02 09:48:05;;;;;;;3.97;1.02;;;10.00;99.90;;;;;;4992927;28;20619;-86
2021/12/02 09:50:38;;;;;;;3.08;1.20;;;9.80;99.90;;;;;;4975397;28;20039;-86
2021/12/02 09:53:10;;;;;;;8.95;1.27;;;9.60;99.90;;;;;;4975961;28;20031;-85
2021/12/02 09:55:54;;;;;;;2.03;0.90;;;9.60;99.90;;;;;;4991210;28;20090;-86
2021/12/02 09:58:25;;;;;;;4.43;1.08;;;9.60;99.90;;;;;;4993616;28;20050;-85
2021/12/02 10:01:13;;;;;;;4.15;0.70;;;9.70;99.90;;;;;;4977069;28;20054;-86
2021/12/02 10:03:41;;;;;;;1.85;0.85;;;9.80;99.90;;;;;;4978110;28;20087;-86
2021/12/02 10:06:17;;;;;;;2.85;1.27;;;9.90;99.90;;;;;;4979979;28;20047;-84
2021/12/02 10:11:51;;;;;;;3.25;1.30;;;10.00;99.90;;;;;;4956944;29;20078;-85
2021/12/02 10:14:38;;;;;;;2.97;1.23;;;10.00;99.90;;;;;;4978834;28;20090;-84
2021/12/02 10:17:13;;;;;;;8.20;1.05;;;10.10;99.90;;;;;;4979383;28;20035;-87
2021/12/02 10:19:58;;;;;;;1.88;1.02;;;10.00;99.90;;;;;;4972114;28;20066;-84
2021/12/02 10:22:26;;;;;;;1.27;0.90;;;9.80;99.90;;;;;;4962181;28;20044;-87
2021/12/02 10:24:52;;;;;;;0.95;0.73;;;9.70;99.90;;;;;;4961667;28;20106;-83
2021/12/02 10:27:18;;;;;;;1.90;0.90;;;9.80;99.90;;;;;;4962754;28;20054;-85
2021/12/02 10:29:47;;;;;;;2.88;0.90;;;9.80;99.90;;;;;;4980005;28;20063;-85
2021/12/02 10:32:28;;;;;;;2.10;0.95;;;9.90;99.90;;;;;;4984406;28;20031;-84
2021/12/02 10:35:00;;;;;;;1.83;0.80;;;10.00;99.90;;;;;;4970975;28;20046;-85
2021/12/02 10:37:34;;;;;;;5.38;1.90;;;10.00;99.90;;;;;;4966750;28;20051;-86
2021/12/02 10:40:07;;;;;;;5.40;1.80;;;9.90;99.90;;;;;;4975169;28;20027;-85
2021/12/02 10:42:37;;;;;;;4.97;2.00;;;9.70;99.90;;;;;;4977488;28;20431;-86
2021/12/02 10:45:07;;;;;;;7.82;2.05;;;9.70;99.90;;;;;;4982057;28;20046;-84
2021/12/02 10:47:34;;;;;;;7.40;2.30;;;9.70;99.90;;;;;;4980461;28;20038;-86
2021/12/02 10:50:09;;;;;;;4.88;1.90;;;9.90;99.90;;;;;;4978931;28;20031;-86
2021/12/02 10:52:35;;;;;;;7.03;2.20;;;9.80;99.90;;;;;;4962417;28;20035;-84
2021/12/02 10:55:03;;;;;;;5.25;2.25;;;9.60;99.90;;;;;;4981958;28;20031;-82
2021/12/02 10:57:31;;;;;;;2.00;1.50;;;9.60;99.90;;;;;;4981226;28;20029;-83
2021/12/02 11:00:03;;;;;;;8.77;1.88;;;9.50;99.90;;;;;;4976965;28;20035;-84
2021/12/02 11:02:35;;;;;;;7.57;2.33;;;9.40;99.90;;;;;;4984208;28;20061;-84
2021/12/02 11:05:07;;;;;;;5.03;1.77;;;9.50;99.90;;;;;;4978801;28;20022;-85
2021/12/02 11:07:42;;;;;;;5.38;1.67;;;9.60;99.90;;;;;;4965082;28;20027;-84
2021/12/02 11:10:12;;;;;;;10.32;1.70;;;9.70;99.90;;;;;;4974725;28;20097;-83
2021/12/02 11:12:43;;;;;;;6.47;1.98;;;9.70;99.90;;;;;;4980086;28;20019;-84
2021/12/02 11:15:13;;;;;;;10.13;1.90;;;9.70;99.90;;;;;;4978199;28;20023;-85
2021/12/02 11:18:02;;;;;;;10.30;2.60;;;9.90;99.90;;;;;;4961628;28;20035;-84
2021/12/02 11:20:50;;;;;;;5.65;2.00;;;9.90;99.90;;;;;;4962438;28;20027;-85
2021/12/02 11:23:30;;;;;;;3.63;1.50;;;10.00;99.90;;;;;;4973596;28;20050;-85
2021/12/02 11:25:58;;;;;;;2.40;1.35;;;10.00;99.90;;;;;;4985580;28;20026;-83
2021/12/02 11:28:27;;;;;;;1.58;1.05;;;9.90;99.90;;;;;;4970587;28;20011;-82
2021/12/02 11:30:54;;;;;;;4.15;1.77;;;10.00;99.90;;;;;;4970507;28;20069;-85
2021/12/02 11:33:20;;;;;;;10.60;1.30;;;10.00;99.90;;;;;;4979446;28;20022;-83
2021/12/02 11:35:48;;;;;;;2.17;1.23;;;10.00;99.90;;;;;;4997348;28;20123;-83
2021/12/02 11:38:23;;;;;;;3.50;1.30;;;10.10;99.90;;;;;;4977702;28;20082;-84
2021/12/02 11:40:50;;;;;;;;;;;10.10;99.90;;;;;;4978763;28;20050;-85
2021/12/02 11:43:25;;;;;;;3.00;1.00;;;10.20;99.90;;;;;;4995405;28;19921;-84
2021/12/02 11:45:54;;;;;;;3.80;1.40;;;10.20;99.90;;;;;;4978435;28;20058;-84
2021/12/02 11:48:26;;;;;;;5.53;1.20;;;10.20;99.90;;;;;;4998321;23;20042;-83
2021/12/02 11:50:55;;;;;;;3.05;1.33;;;10.20;99.90;;;;;;4978953;29;20043;-80
2021/12/02 11:53:23;;;;;;;2.30;0.98;;;10.20;99.90;;;;;;4979571;28;20015;-82
2021/12/02 11:55:57;;;;;;;11.68;1.20;;;10.10;99.90;;;;;;4979515;28;20015;-81
2021/12/02 11:58:23;;;;;;;3.83;1.40;;;10.10;99.90;;;;;;4961696;29;20041;-81
2021/12/02 12:00:50;;;;;;;3.25;1.27;;;10.00;99.90;;;;;;4959094;29;20016;-82
2021/12/02 12:03:33;;;;;;;2.75;1.15;;;10.00;99.90;;;;;;4958743;29;20052;-79
2021/12/02 12:06:02;;;;;;;5.25;1.70;;;10.10;99.90;;;;;;4962211;29;20039;-83
2021/12/02 12:08:40;;;;;;;3.20;1.48;;;10.10;99.90;;;;;;4969704;29;20027;-84
2021/12/02 12:11:22;;;;;;;4.65;1.55;;;10.10;99.90;;;;;;4978940;29;20051;-81
2021/12/02 12:13:53;;;;;;;2.38;1.20;;;10.00;99.90;;;;;;4971386;29;20072;-84
2021/12/02 12:16:37;;;;;;;2.53;1.35;;;10.00;99.90;;;;;;4968426;29;20019;-82
2021/12/02 12:19:31;;;;;;;1.42;0.90;;;10.00;99.90;;;;;;4980090;28;20059;-84
2021/12/02 12:22:05;;;;;;;3.33;1.40;;;10.00;99.90;;;;;;4976975;28;20047;-83
2021/12/02 12:24:50;;;;;;;3.47;1.27;;;10.00;99.90;;;;;;4978529;29;20046;-83
2021/12/02 12:27:20;;;;;;;1.88;1.35;;;10.10;99.90;;;;;;4974022;28;20050;-85
2021/12/02 12:30:07;;;;;;;4.00;1.48;;;10.10;99.90;;;;;;4971175;29;20062;-85
2021/12/02 12:32:43;;;;;;;6.13;1.65;;;10.10;99.90;;;;;;4950662;29;20043;-84
2021/12/02 12:35:18;;;;;;;10.20;4.22;;;10.00;99.90;;;;;;4954269;29;20051;-82
2021/12/02 12:40:20;;;;;;;6.45;2.03;;;9.90;99.90;;;;;;4954561;29;20106;-85
2021/12/02 12:42:48;;;;;;;;;;;9.90;99.90;;;;;;4972170;29;20036;-83
2021/12/02 12:45:33;;;;;;;5.85;2.03;;;9.80;99.90;;;;;;4975312;29;20339;-83
2021/12/02 12:48:01;;;;;;;3.65;1.67;;;9.50;99.90;;;;;;4964291;28;20063;-84
2021/12/02 12:50:35;;;;;;;4.35;1.77;;;9.40;99.90;;;;;;4952543;29;20091;-84
2021/12/02 12:53:13;;;;;;;5.10;2.00;;;9.40;99.90;;;;;;4952963;29;20240;-84
2021/12/02 12:55:41;;;;;;;7.88;2.08;;;9.40;99.90;;;;;;4952657;29;20059;-84
2021/12/02 12:58:18;;;;;;;3.67;1.50;;;9.60;99.90;;;;;;4939494;29;20043;-82
2021/12/02 13:00:53;;;;;;;7.20;2.40;;;9.50;99.90;;;;;;4957123;29;20039;-81
2021/12/02 13:03:27;;;;;;;5.30;1.90;;;9.60;99.90;;;;;;4960423;29;20050;-83
2021/12/02 13:06:08;;;;;;;6.28;1.92;;;9.70;99.90;;;;;;4975942;28;20024;-82
2021/12/02 13:08:45;;;;;;;6.05;1.70;;;9.70;99.90;;;;;;4974672;29;20058;-83
2021/12/02 13:11:14;;;;;;;3.55;1.75;;;9.70;99.90;;;;;;4978638;28;20353;-82
2021/12/02 13:13:41;;;;;;;3.90;1.40;;;9.80;99.90;;;;;;4978244;28;20031;-87
2021/12/02 13:16:14;;;;;;;8.45;1.55;;;9.90;99.90;;;;;;4949380;29;20035;-84
2021/12/02 13:18:42;;;;;;;3.60;1.40;;;9.80;99.90;;;;;;4957948;29;20092;-85